createdAt,value
2022-08-27T00:02:06.831Z,1.30
2022-08-27T00:04:35.707Z,1.50
2022-08-27T00:12:07.957Z,1.92
2022-08-27T00:14:36.505Z,1.92
2022-08-27T00:17:04.903Z,1.90
2022-08-27T00:19:32.942Z,1.65
2022-08-27T00:22:00.348Z,1.60
2022-08-27T00:24:27.974Z,1.35
2022-08-27T00:26:55.702Z,1.35
2022-08-27T00:32:48.959Z,1.50
2022-08-27T00:35:16.669Z,1.50
2022-08-27T00:37:45.009Z,1.92
2022-08-27T00:40:15.063Z,1.52
2022-08-27T00:42:45.322Z,1.60
2022-08-27T00:45:13.998Z,1.75
2022-08-27T00:47:45.630Z,1.38
2022-08-27T00:55:27.307Z,2.13
2022-08-27T00:58:03.212Z,2.22
2022-08-27T01:00:33.407Z,1.17
2022-08-27T01:03:00.901Z,1.77
2022-08-27T01:05:28.789Z,1.25
2022-08-27T01:08:02.055Z,2.97
2022-08-27T01:10:30.931Z,1.88
2022-08-27T01:18:04.814Z,1.48
2022-08-27T01:20:38.341Z,1.30
2022-08-27T01:23:15.044Z,2.05
2022-08-27T01:25:43.581Z,1.88
2022-08-27T01:28:12.385Z,1.20
2022-08-27T01:30:41.321Z,2.38
2022-08-27T01:33:11.015Z,2.20
2022-08-27T01:38:33.047Z,1.92
2022-08-27T01:41:02.160Z,1.30
2022-08-27T01:43:30.637Z,2.15
2022-08-27T01:45:58.375Z,1.58
2022-08-27T01:48:25.814Z,1.85
2022-08-27T01:50:53.289Z,1.48
2022-08-27T01:53:24.129Z,1.95
2022-08-27T02:00:59.240Z,1.40
2022-08-27T02:03:27.277Z,1.67
2022-08-27T02:05:54.723Z,2.00
2022-08-27T02:08:22.353Z,1.50
2022-08-27T02:10:50.736Z,1.58
2022-08-27T02:13:18.770Z,1.52
2022-08-27T02:15:46.365Z,1.58
2022-08-27T02:23:18.004Z,1.67
2022-08-27T02:25:46.721Z,1.40
2022-08-27T02:28:14.856Z,1.73
2022-08-27T02:30:42.331Z,1.48
2022-08-27T02:33:09.880Z,1.52
2022-08-27T02:35:40.024Z,1.63
2022-08-27T02:38:08.081Z,1.80
2022-08-27T02:45:39.405Z,0.95
2022-08-27T02:48:07.722Z,1.83
2022-08-27T02:50:36.252Z,1.98
2022-08-27T02:53:05.839Z,1.73
2022-08-27T02:55:33.942Z,1.63
2022-08-27T02:58:01.779Z,1.40
2022-08-27T03:00:29.790Z,1.67
2022-08-27T03:08:01.410Z,1.80
2022-08-27T03:10:29.320Z,1.75
2022-08-27T03:12:57.083Z,2.13
2022-08-27T03:15:24.770Z,1.42
2022-08-27T03:18:12.736Z,2.17
2022-08-27T03:20:41.937Z,1.67
2022-08-27T03:23:10.993Z,1.80
2022-08-27T03:28:25.356Z,1.73
2022-08-27T03:30:57.877Z,1.70
2022-08-27T03:33:26.204Z,1.73
2022-08-27T03:35:53.725Z,1.35
2022-08-27T03:38:21.455Z,1.67
2022-08-27T03:40:49.615Z,1.45
2022-08-27T03:43:19.386Z,1.42
2022-08-27T03:50:55.971Z,2.42
2022-08-27T03:53:23.572Z,1.60
2022-08-27T03:55:51.080Z,1.58
2022-08-27T03:58:18.538Z,2.10
2022-08-27T04:00:46.031Z,1.92
2022-08-27T04:03:14.117Z,1.58
2022-08-27T04:05:42.550Z,1.77
2022-08-27T04:13:17.004Z,1.73
2022-08-27T04:15:45.494Z,2.38
2022-08-27T04:18:16.013Z,1.85
2022-08-27T04:20:43.690Z,1.42
2022-08-27T04:23:11.098Z,1.80
2022-08-27T04:25:40.078Z,1.95
2022-08-27T04:28:07.827Z,2.22
2022-08-27T04:35:33.932Z,1.50
2022-08-27T04:38:01.443Z,1.55
2022-08-27T04:40:48.780Z,1.75
2022-08-27T04:43:17.716Z,1.98
2022-08-27T04:45:46.617Z,1.85
2022-08-27T04:48:16.333Z,1.42
2022-08-27T04:50:46.424Z,1.40
2022-08-27T04:58:15.690Z,1.92
2022-08-27T05:00:43.993Z,2.03
2022-08-27T05:03:12.327Z,1.67
2022-08-27T05:05:41.601Z,1.60
2022-08-27T05:08:13.452Z,2.15
2022-08-27T05:10:42.549Z,1.75
2022-08-27T05:13:10.480Z,1.30
2022-08-27T05:20:42.819Z,1.73
2022-08-27T05:23:11.013Z,1.83
2022-08-27T05:25:39.650Z,1.45
2022-08-27T05:28:07.399Z,1.75
2022-08-27T05:30:39.882Z,1.77
2022-08-27T05:33:08.361Z,1.75
2022-08-27T05:35:41.619Z,2.33
2022-08-27T05:42:50.196Z,2.08
2022-08-27T05:45:19.091Z,2.05
2022-08-27T05:47:46.556Z,1.73
2022-08-27T05:50:14.824Z,1.98
2022-08-27T05:52:42.531Z,2.60
2022-08-27T05:55:10.037Z,1.48
2022-08-27T05:57:38.725Z,2.10
2022-08-27T06:05:28.725Z,2.00
2022-08-27T06:07:56.400Z,2.05
2022-08-27T06:10:23.927Z,2.50
2022-08-27T06:12:56.311Z,1.80
2022-08-27T06:17:52.150Z,2.22
2022-08-27T06:20:20.292Z,1.98
2022-08-27T06:27:46.672Z,1.83
2022-08-27T06:30:17.432Z,1.85
2022-08-27T06:32:45.337Z,1.30
2022-08-27T06:35:13.096Z,1.80
2022-08-27T06:37:40.907Z,1.20
2022-08-27T06:40:10.274Z,2.67
2022-08-27T06:42:38.144Z,1.83
2022-08-27T06:50:11.633Z,1.95
2022-08-27T06:52:39.258Z,2.00
2022-08-27T06:55:10.721Z,2.08
2022-08-27T06:57:38.185Z,2.08
2022-08-27T07:00:07.697Z,2.35
2022-08-27T07:02:35.184Z,2.08
2022-08-27T07:05:03.072Z,2.25
2022-08-27T07:12:34.532Z,1.73
2022-08-27T07:15:02.272Z,1.80
2022-08-27T07:17:31.263Z,1.55
2022-08-27T07:19:58.877Z,1.85
2022-08-27T07:22:26.781Z,2.30
2022-08-27T07:24:54.325Z,2.42
2022-08-27T07:27:21.827Z,1.50
2022-08-27T07:33:51.515Z,1.92
2022-08-27T07:36:21.468Z,1.88
2022-08-27T07:38:56.981Z,2.10
2022-08-27T07:41:31.545Z,1.88
2022-08-27T07:44:17.995Z,1.90
2022-08-27T07:46:48.826Z,2.17
2022-08-27T07:54:38.803Z,1.48
2022-08-27T07:57:06.494Z,1.80
2022-08-27T07:59:34.391Z,1.85
2022-08-27T08:02:02.149Z,1.40
2022-08-27T08:04:29.969Z,1.58
2022-08-27T08:06:57.658Z,1.88
2022-08-27T08:09:25.498Z,2.20
2022-08-27T08:16:06.544Z,2.05
2022-08-27T08:18:35.209Z,1.85
2022-08-27T08:21:04.815Z,1.23
2022-08-27T08:23:33.175Z,1.40
2022-08-27T08:26:01.467Z,1.52
2022-08-27T08:28:29.780Z,1.70
2022-08-27T08:30:58.514Z,1.42
2022-08-27T08:38:30.732Z,2.00
2022-08-27T08:40:58.395Z,1.85
2022-08-27T08:43:31.786Z,1.83
2022-08-27T08:46:09.363Z,1.55
2022-08-27T08:48:41.975Z,1.33
2022-08-27T08:51:17.442Z,1.45
2022-08-27T08:53:52.866Z,1.88
2022-08-27T08:59:03.462Z,1.10
2022-08-27T09:01:31.272Z,1.75
2022-08-27T09:04:02.606Z,1.55
2022-08-27T09:06:41.173Z,1.80
2022-08-27T09:09:22.171Z,1.55
2022-08-27T09:11:55.795Z,1.65
2022-08-27T09:14:34.435Z,1.50
2022-08-27T09:22:16.860Z,1.90
2022-08-27T09:24:52.688Z,1.40
2022-08-27T09:27:22.280Z,1.58
2022-08-27T09:29:52.578Z,1.80
2022-08-27T09:32:24.693Z,1.40
2022-08-27T09:34:52.527Z,1.63
2022-08-27T09:42:49.591Z,1.42
2022-08-27T09:45:20.732Z,2.15
2022-08-27T09:47:51.165Z,2.30
2022-08-27T09:50:22.016Z,2.00
2022-08-27T09:52:54.792Z,1.80
2022-08-27T09:55:31.591Z,2.25
2022-08-27T10:00:41.207Z,1.63
2022-08-27T10:03:11.033Z,1.45
2022-08-27T10:05:43.792Z,1.90
2022-08-27T10:08:22.852Z,2.10
2022-08-27T10:10:56.734Z,1.60
2022-08-27T10:13:31.135Z,1.60
2022-08-27T10:19:35.045Z,2.00
2022-08-27T10:22:13.118Z,1.80
2022-08-27T10:24:55.562Z,1.70
2022-08-27T10:27:33.167Z,1.88
2022-08-27T10:30:04.838Z,1.55
2022-08-27T10:32:47.510Z,1.77
2022-08-27T10:40:28.009Z,2.05
2022-08-27T10:43:15.050Z,1.70
2022-08-27T10:45:49.766Z,1.50
2022-08-27T10:48:24.197Z,2.08
2022-08-27T10:50:57.001Z,2.00
2022-08-27T10:53:35.258Z,2.20
2022-08-27T10:58:57.958Z,2.13
2022-08-27T11:01:37.352Z,1.70
2022-08-27T11:04:10.453Z,2.30
2022-08-27T11:06:43.390Z,1.60
2022-08-27T11:09:16.830Z,2.05
2022-08-27T11:12:13.205Z,1.75
2022-08-27T11:20:01.454Z,2.00
2022-08-27T11:22:35.950Z,2.00
2022-08-27T11:27:36.189Z,1.75
2022-08-27T11:30:07.917Z,1.90
2022-08-27T11:32:49.782Z,1.98
2022-08-27T11:35:23.608Z,1.58
2022-08-27T11:42:54.917Z,1.73
2022-08-27T11:45:30.512Z,2.00
2022-08-27T11:48:00.315Z,2.47
2022-08-27T11:50:30.923Z,1.98
2022-08-27T11:53:00.961Z,1.90
2022-08-27T11:55:31.954Z,1.88
2022-08-27T11:58:11.592Z,1.77
2022-08-27T12:03:28.485Z,1.92
2022-08-27T12:06:24.198Z,1.55
2022-08-27T12:08:52.085Z,1.60
2022-08-27T12:11:41.727Z,1.70
2022-08-27T12:14:21.692Z,1.70
2022-08-27T12:16:56.692Z,1.27
2022-08-27T12:24:41.871Z,1.80
2022-08-27T12:27:27.754Z,1.83
2022-08-27T12:29:57.842Z,2.00
2022-08-27T12:32:29.097Z,1.67
2022-08-27T12:35:05.121Z,1.70
2022-08-27T12:37:38.935Z,1.83
2022-08-27T12:45:18.897Z,1.50
2022-08-27T12:47:50.952Z,1.33
2022-08-27T12:53:05.554Z,1.58
2022-08-27T12:55:44.799Z,1.95
2022-08-27T12:58:23.975Z,1.65
2022-08-27T13:05:57.269Z,1.80
2022-08-27T13:08:29.526Z,2.35
2022-08-27T13:11:06.985Z,1.70
2022-08-27T13:13:36.588Z,2.10
2022-08-27T13:16:05.421Z,1.85
2022-08-27T13:18:33.663Z,2.22
2022-08-27T13:21:15.471Z,2.25
2022-08-27T13:28:12.263Z,1.60
2022-08-27T13:30:42.249Z,1.48
2022-08-27T13:33:14.962Z,1.85
2022-08-27T13:35:44.507Z,1.98
2022-08-27T13:38:14.980Z,1.65
2022-08-27T13:40:54.973Z,1.98
2022-08-27T13:46:14.954Z,1.42
2022-08-27T13:48:45.377Z,2.60
2022-08-27T13:51:14.531Z,1.50
2022-08-27T13:54:04.173Z,2.00
2022-08-27T13:56:34.068Z,1.70
2022-08-27T13:59:13.485Z,1.88
2022-08-27T14:07:20.974Z,1.80
2022-08-27T14:09:54.510Z,2.10
2022-08-27T14:12:33.118Z,1.98
2022-08-27T14:15:18.120Z,1.63
2022-08-27T14:17:46.965Z,2.00
2022-08-27T14:20:15.400Z,2.05
2022-08-27T14:22:44.567Z,1.50
2022-08-27T14:29:55.039Z,1.60
2022-08-27T14:32:22.718Z,1.63
2022-08-27T14:34:50.368Z,2.03
2022-08-27T14:37:18.017Z,1.45
2022-08-27T14:39:45.774Z,1.95
2022-08-27T14:42:14.197Z,2.00
2022-08-27T14:44:41.692Z,1.60
2022-08-27T14:50:51.047Z,1.80
2022-08-27T14:53:19.546Z,2.00
2022-08-27T14:55:51.924Z,2.25
2022-08-27T15:00:48.161Z,1.95
2022-08-27T15:03:15.878Z,2.38
2022-08-27T15:05:44.519Z,2.10
2022-08-27T15:10:50.921Z,2.05
2022-08-27T15:13:18.708Z,4.10
2022-08-27T15:15:46.387Z,3.13
2022-08-27T15:18:13.964Z,2.30
2022-08-27T15:20:42.209Z,2.00
2022-08-27T15:23:11.528Z,1.40
2022-08-27T15:25:39.795Z,1.98
2022-08-27T15:33:03.887Z,1.55
2022-08-27T15:35:31.565Z,1.98
2022-08-27T15:37:59.322Z,1.92
2022-08-27T15:40:29.740Z,2.03
2022-08-27T15:43:01.627Z,2.72
2022-08-27T15:45:30.664Z,1.80
2022-08-27T15:47:59.253Z,1.88
2022-08-27T15:54:57.903Z,1.75
2022-08-27T15:57:25.636Z,2.53
2022-08-27T15:59:53.300Z,2.08
2022-08-27T16:02:23.837Z,2.47
2022-08-27T16:04:51.443Z,2.00
2022-08-27T16:07:21.199Z,1.90
2022-08-27T16:09:49.046Z,1.63
2022-08-27T16:17:21.173Z,2.08
2022-08-27T16:19:49.383Z,2.30
2022-08-27T16:22:16.957Z,1.95
2022-08-27T16:24:44.755Z,2.08
2022-08-27T16:27:12.635Z,1.90
2022-08-27T16:29:40.228Z,2.40
2022-08-27T16:32:11.397Z,2.13
2022-08-27T16:39:07.986Z,1.90
2022-08-27T16:41:35.556Z,2.00
2022-08-27T16:44:04.432Z,2.00
2022-08-27T16:46:32.513Z,1.80
2022-08-27T16:49:26.637Z,2.22
2022-08-27T16:51:54.167Z,2.25
2022-08-27T16:57:10.192Z,2.55
2022-08-27T16:59:38.033Z,2.30
2022-08-27T17:02:05.958Z,2.20
2022-08-27T17:04:34.551Z,2.08
2022-08-27T17:07:05.906Z,2.33
2022-08-27T17:09:34.458Z,2.58
2022-08-27T17:12:04.676Z,3.00
2022-08-27T17:17:16.753Z,3.33
2022-08-27T17:19:44.899Z,3.60
2022-08-27T17:22:13.563Z,3.05
2022-08-27T17:24:41.558Z,3.25
2022-08-27T17:27:09.356Z,3.22
2022-08-27T17:29:37.195Z,3.22
2022-08-27T17:32:07.043Z,4.15
2022-08-27T17:39:38.992Z,3.75
2022-08-27T17:42:07.826Z,4.13
2022-08-27T17:44:36.915Z,3.50
2022-08-27T17:47:07.512Z,2.83
2022-08-27T17:49:35.837Z,3.30
2022-08-27T17:52:08.406Z,4.18
2022-08-27T17:57:40.856Z,5.30
2022-08-27T18:00:11.285Z,4.13
2022-08-27T18:02:41.136Z,5.47
2022-08-27T18:05:12.438Z,4.50
2022-08-27T18:07:40.458Z,2.80
2022-08-27T18:10:09.603Z,4.32
2022-08-27T18:12:40.933Z,3.88
2022-08-27T18:17:53.760Z,2.92
2022-08-27T18:20:22.678Z,3.13
2022-08-27T18:22:50.805Z,4.03
2022-08-27T18:25:20.408Z,4.55
2022-08-27T18:27:50.513Z,6.00
2022-08-27T18:30:20.053Z,4.93
2022-08-27T18:32:48.408Z,4.47
2022-08-27T18:39:38.905Z,3.08
2022-08-27T18:42:07.851Z,2.67
2022-08-27T18:44:38.400Z,2.20
2022-08-27T18:47:06.336Z,2.70
2022-08-27T18:49:34.631Z,2.75
2022-08-27T18:52:02.814Z,2.55
2022-08-27T18:54:30.871Z,2.47
2022-08-27T18:59:42.604Z,2.30
2022-08-27T19:02:18.313Z,1.95
2022-08-27T19:04:46.820Z,2.05
2022-08-27T19:07:14.873Z,2.40
2022-08-27T19:09:43.022Z,2.22
2022-08-27T19:12:12.548Z,2.80
2022-08-27T19:14:43.715Z,2.00
2022-08-27T19:19:51.948Z,2.38
2022-08-27T19:22:20.304Z,2.17
2022-08-27T19:24:49.858Z,2.60
2022-08-27T19:27:21.912Z,2.80
2022-08-27T19:29:52.655Z,2.22
2022-08-27T19:32:20.780Z,2.47
2022-08-27T19:34:48.578Z,2.50
2022-08-27T19:42:18.071Z,3.03
2022-08-27T19:44:45.877Z,2.50
2022-08-27T19:47:16.214Z,2.55
2022-08-27T19:49:49.404Z,2.67
2022-08-27T19:52:17.015Z,2.67
2022-08-27T19:54:57.258Z,2.20
2022-08-27T20:00:20.200Z,2.60
2022-08-27T20:02:50.638Z,2.38
2022-08-27T20:05:19.634Z,2.33
2022-08-27T20:07:48.402Z,2.42
2022-08-27T20:10:16.699Z,2.22
2022-08-27T20:12:44.364Z,2.20
2022-08-27T20:15:13.094Z,2.60
2022-08-27T20:21:59.651Z,2.58
2022-08-27T20:24:27.352Z,2.75
2022-08-27T20:26:56.531Z,2.15
2022-08-27T20:29:32.579Z,1.92
2022-08-27T20:32:00.791Z,2.80
2022-08-27T20:34:29.380Z,2.83
2022-08-27T20:36:58.302Z,2.30
2022-08-27T20:44:32.058Z,2.10
2022-08-27T20:47:01.729Z,2.35
2022-08-27T20:49:30.070Z,2.38
2022-08-27T20:52:03.379Z,2.45
2022-08-27T20:54:31.759Z,2.00
2022-08-27T20:56:59.340Z,2.40
2022-08-27T20:59:44.804Z,1.83
2022-08-27T21:06:42.221Z,1.83
2022-08-27T21:09:09.716Z,2.53
2022-08-27T21:11:37.187Z,2.00
2022-08-27T21:14:04.810Z,2.25
2022-08-27T21:16:33.953Z,2.58
2022-08-27T21:19:01.546Z,1.85
2022-08-27T21:21:29.061Z,1.67
2022-08-27T21:28:23.581Z,2.40
2022-08-27T21:30:51.025Z,2.55
2022-08-27T21:33:18.427Z,2.00
2022-08-27T21:35:45.949Z,1.95
2022-08-27T21:38:13.535Z,2.15
2022-08-27T21:40:41.079Z,1.75
2022-08-27T21:43:08.782Z,1.90
2022-08-27T21:50:35.458Z,1.88
2022-08-27T21:53:02.978Z,1.77
2022-08-27T21:55:30.418Z,2.40
2022-08-27T21:57:57.866Z,2.40
2022-08-27T22:00:40.640Z,2.00
2022-08-27T22:03:10.677Z,2.00
2022-08-27T22:05:41.237Z,2.25
2022-08-27T22:13:19.500Z,2.25
2022-08-27T22:15:47.271Z,1.80
2022-08-27T22:18:14.945Z,2.45
2022-08-27T22:20:43.015Z,2.35
2022-08-27T22:23:12.261Z,2.17
2022-08-27T22:25:40.895Z,2.25
2022-08-27T22:28:08.609Z,2.20
2022-08-27T22:35:41.094Z,2.22
2022-08-27T22:38:09.190Z,1.60
2022-08-27T22:40:37.135Z,2.00
2022-08-27T22:43:05.524Z,2.30
2022-08-27T22:45:34.023Z,2.00
2022-08-27T22:48:01.501Z,2.13
2022-08-27T22:50:29.033Z,2.10
2022-08-27T22:57:41.725Z,1.75
2022-08-27T23:00:12.818Z,2.13
2022-08-27T23:02:40.435Z,2.30
2022-08-27T23:05:08.550Z,2.00
2022-08-27T23:07:36.125Z,1.60
2022-08-27T23:10:05.357Z,2.65
2022-08-27T23:12:33.489Z,2.13
2022-08-27T23:20:11.460Z,2.38
2022-08-27T23:22:39.392Z,1.85
2022-08-27T23:25:27.472Z,2.10
2022-08-27T23:27:58.309Z,2.50
2022-08-27T23:30:27.854Z,1.90
2022-08-27T23:32:55.769Z,1.90
2022-08-27T23:35:25.812Z,2.28
2022-08-27T23:42:54.374Z,2.17
2022-08-27T23:45:25.815Z,2.42
2022-08-27T23:47:53.493Z,1.80
2022-08-27T23:50:24.674Z,2.33
2022-08-27T23:53:02.109Z,2.20
2022-08-27T23:55:29.886Z,2.10
2022-08-27T23:57:58.110Z,2.92
